Tug "trevor" — WCP6921 — position and weather

sailwx.info

Track history (hours):
 
Tides and Currents Weather Stations Pressure Air Temp Water Temp Dewpoint Dewpoint Depression Visibility Wind Speed Wind Dir Waves Ship Positions

Tug "trevor"

Owner: WEEKS MARINE, INC., CRANFORD, NJ. More information available from US FCC via Universal Licensing System and Coast Guard Vessel Documentation Center.

Last reported at 2016-Dec-10 04:34 UTC. Time now 2016-Dec-10 05:04 UTC.
Position N 40°02' W 074°60'.

Length 21 m; draft 3 m.

Type: Towing. MMSI: 366643140.

Date/timePositionNaut miles runAvg speedWind from/ knotsBaromVisibWave heightAir tempDewpointWater temp
2016-Dec-10 04:34N 40°02' W 074°60'0 0.0
2016-Dec-10 03:34N 40°02' W 074°60'0 0.0
2016-Dec-10 02:33N 40°02' W 074°60'0 0.0
2016-Dec-10 01:33N 40°02' W 074°60'0 0.0
2016-Dec-10 00:33N 40°02' W 074°60'0 0.0
2016-Dec-09 23:34N 40°02' W 074°60'0 0.0
2016-Dec-09 22:34N 40°02' W 074°60'0 0.1
2016-Dec-09 21:34N 40°02' W 074°59'0 0.1
2016-Dec-09 20:33N 40°02' W 074°60'0 0.0
2016-Dec-09 19:34N 40°02' W 074°60'0 0.0
2016-Dec-09 18:34N 40°02' W 074°60'0 0.0
2016-Dec-09 17:34N 40°02' W 074°60'0 0.0
2016-Dec-09 16:15N 40°02' W 074°60'0 0.3
2016-Dec-09 15:33N 40°02' W 074°60'0 0.2
2016-Dec-09 14:32N 40°02' W 074°60'0 0.0
2016-Dec-09 13:33N 40°02' W 074°60'0 0.0
2016-Dec-09 12:33N 40°02' W 074°60'0 0.1
2016-Dec-09 11:33N 40°02' W 074°60'0 0.0
2016-Dec-09 10:34N 40°02' W 074°60'0 0.0
2016-Dec-09 09:34N 40°02' W 074°60'0 0.0
2016-Dec-09 08:34N 40°02' W 074°60'0 0.0
2016-Dec-09 07:33N 40°02' W 074°60'0 0.0
2016-Dec-09 06:34N 40°02' W 074°60'0 0.3
2016-Dec-09 05:34N 40°02' W 074°60'0 0.0
2016-Dec-09 04:34N 40°02' W 074°60'0 0.0
2016-Dec-09 03:34N 40°02' W 074°60'0 0.0
2016-Dec-09 02:33N 40°02' W 074°60'0 0.4
2016-Dec-09 01:34N 40°02' W 074°60'0 0.0
2016-Dec-09 00:34N 40°02' W 074°60'0 0.0
2016-Dec-08 23:33N 40°02' W 074°60'0 0.0
2016-Dec-08 22:34N 40°02' W 074°60'0 0.0
2016-Dec-08 21:33N 40°02' W 074°60'0 0.0
2016-Dec-08 20:34N 40°02' W 074°60'0 0.0
2016-Dec-08 19:34N 40°02' W 074°60'0 0.0
2016-Dec-08 18:34N 40°02' W 074°60'0 0.0
2016-Dec-08 17:34N 40°02' W 074°60'0 0.0
2016-Dec-08 16:34N 40°02' W 074°60'0 0.0
2016-Dec-08 15:34N 40°02' W 074°60'0 0.0
2016-Dec-08 14:34N 40°02' W 074°60'0 0.0
2016-Dec-08 13:34N 40°02' W 074°60'0 0.0
2016-Dec-08 12:34N 40°02' W 074°60'0 0.0
2016-Dec-08 11:34N 40°02' W 074°60'0 0.1
2016-Dec-08 10:34N 40°02' W 074°60'0 0.1
2016-Dec-08 09:34N 40°02' W 074°60'0 0.0
2016-Dec-08 08:34N 40°02' W 074°60'0 0.0
2016-Dec-08 07:34N 40°02' W 074°60'0 0.0
2016-Dec-08 06:33N 40°02' W 074°60'0 0.0
2016-Dec-08 05:34N 40°02' W 074°60'0 0.0
2016-Dec-08 04:34N 40°02' W 074°60'0 0.0
2016-Dec-08 03:34N 40°02' W 074°60'0 0.0
2016-Dec-08 02:34N 40°02' W 074°60'0 0.0
2016-Dec-08 01:34N 40°02' W 074°60'0 0.0
2016-Dec-08 00:33N 40°02' W 074°60'0 0.0
2016-Dec-07 23:34N 40°02' W 074°60'4 3.9
2016-Dec-07 22:34N 39°59' W 075°04'4 3.8
2016-Dec-07 21:34N 39°57' W 075°08'1 0.6
2016-Dec-07 20:34N 39°57' W 075°08'1 0.6
2016-Dec-07 19:34N 39°57' W 075°08'0 0.0
2016-Dec-07 18:34N 39°57' W 075°08'0 0.0
2016-Dec-07 17:34N 39°57' W 075°08'0 0.0
2016-Dec-07 16:34N 39°57' W 075°08'0 0.0
2016-Dec-07 15:34N 39°57' W 075°08'0 0.0
2016-Dec-07 14:34N 39°57' W 075°08'0 0.0
2016-Dec-07 13:34N 39°57' W 075°08'0 0.0
2016-Dec-07 12:34N 39°57' W 075°08'0 0.0
2016-Dec-07 11:34N 39°57' W 075°08'0 0.0
2016-Dec-07 10:34N 39°57' W 075°08'0 0.0
2016-Dec-07 09:34N 39°57' W 075°08'0 0.0
2016-Dec-07 08:34N 39°57' W 075°08'0 0.0
2016-Dec-07 07:34N 39°57' W 075°08'0 0.0
2016-Dec-07 06:34N 39°57' W 075°08'0 0.0
2016-Dec-07 05:34N 39°57' W 075°08'0 0.0
2016-Dec-07 04:34N 39°57' W 075°08'0 0.0
2016-Dec-07 03:34N 39°57' W 075°08'0 0.0
2016-Dec-07 02:34N 39°57' W 075°08'0 0.0
2016-Dec-07 01:34N 39°57' W 075°08'6 5.5
2016-Dec-07 00:34N 39°53' W 075°12'9 8.7
2016-Dec-06 23:34N 39°50' W 075°22'9 9.4
2016-Dec-06 22:34N 39°43' W 075°30'9 9.1
2016-Dec-06 21:34N 39°34' W 075°33'10 9.7
2016-Dec-06 20:34N 39°24' W 075°30'2211.0
2016-Dec-06 18:33N 39°07' W 075°13'55 6.8
2016-Dec-06 10:33N 39°29' W 074°08'9 9.6
2016-Dec-06 09:33N 39°38' W 074°03'49 9.6
2016-Dec-06 04:30N 40°26' W 073°57'4 1.8
2016-Dec-06 02:12N 40°28' W 074°01'5 1.8
2016-Dec-05 23:20N 40°29' W 073°55'0 0.5
2016-Dec-05 22:33N 40°29' W 073°54'0 0.0
2016-Dec-05 21:34N 40°29' W 073°54'3 1.0
2016-Dec-05 18:14N 40°29' W 073°59'1 0.4
2016-Dec-05 16:19N 40°29' W 073°60'0 0.1
2016-Dec-05 12:34N 40°29' W 073°59'0 0.4
2016-Dec-05 11:31N 40°29' W 073°60'0 0.0
2016-Dec-05 10:32N 40°29' W 073°60'0 0.0
2016-Dec-05 09:32N 40°29' W 073°60'0 0.0
2016-Dec-05 05:30N 40°29' W 073°60'0 0.0
2016-Dec-05 04:33N 40°29' W 073°60'0 0.0
2016-Dec-05 03:32N 40°29' W 073°60'0 0.0
2016-Dec-05 02:33N 40°29' W 073°60'0 0.0
2016-Dec-05 01:32N 40°29' W 073°60'0 0.0
2016-Dec-05 00:33N 40°29' W 073°60'0 0.0
2016-Dec-04 23:33N 40°29' W 073°60'0 0.0
2016-Dec-04 22:33N 40°29' W 073°60'5 0.6
2016-Dec-04 15:23N 40°29' W 073°54'3 0.6
2016-Dec-04 10:12N 40°30' W 073°58'4 6.1
2016-Dec-04 09:33N 40°33' W 074°02'6 6.3
2016-Dec-04 08:33N 40°39' W 074°03'2 1.9
2016-Dec-04 07:33N 40°41' W 074°04'0 0.0
2016-Dec-04 06:33N 40°41' W 074°04'0 0.0
2016-Dec-04 05:33N 40°41' W 074°04'0 0.0
2016-Dec-04 04:34N 40°41' W 074°04'0 0.0
2016-Dec-04 03:33N 40°41' W 074°04'0 0.0
2016-Dec-04 02:33N 40°41' W 074°04'0 0.0
2016-Dec-04 01:33N 40°41' W 074°04'0 0.0
2016-Dec-04 00:33N 40°41' W 074°04'0 0.0
2016-Dec-03 23:33N 40°41' W 074°04'0 0.0
2016-Dec-03 22:33N 40°41' W 074°04'0 0.0
2016-Dec-03 21:33N 40°41' W 074°04'0 0.0
2016-Dec-03 20:33N 40°41' W 074°04'0 0.0
2016-Dec-03 19:33N 40°41' W 074°04'0 0.0
2016-Dec-03 18:33N 40°41' W 074°04'0 0.0
2016-Dec-03 17:33N 40°41' W 074°04'0 0.0
2016-Dec-03 16:33N 40°41' W 074°04'0 0.0
2016-Dec-03 15:34N 40°41' W 074°04'0 0.0
2016-Dec-03 14:33N 40°41' W 074°04'0 0.0
2016-Dec-03 13:33N 40°41' W 074°04'0 0.0
2016-Dec-03 12:33N 40°41' W 074°04'0 0.0
2016-Dec-03 11:34N 40°41' W 074°04'0 0.0
2016-Dec-03 10:33N 40°41' W 074°04'0 0.0
2016-Dec-03 09:33N 40°41' W 074°04'0 0.0
2016-Dec-03 08:33N 40°41' W 074°04'0 0.0
2016-Dec-03 07:33N 40°41' W 074°04'0 0.0
2016-Dec-03 06:33N 40°41' W 074°04'0 0.2
2016-Dec-03 05:33N 40°41' W 074°05'0 0.0
2016-Dec-03 04:33N 40°41' W 074°05'0 0.0
2016-Dec-03 03:33N 40°41' W 074°05'0 0.0
2016-Dec-03 02:33N 40°41' W 074°05'0 0.0
2016-Dec-03 01:33N 40°41' W 074°05'0 0.0
2016-Dec-03 00:34N 40°41' W 074°05'0 0.0
2016-Dec-02 23:33N 40°41' W 074°05'0 0.0
2016-Dec-02 22:33N 40°41' W 074°05'0 0.0
2016-Dec-02 21:33N 40°41' W 074°05'0 0.0
2016-Dec-02 20:34N 40°41' W 074°05'0 0.0
2016-Dec-02 19:33N 40°41' W 074°05'1 1.4
2016-Dec-02 18:34N 40°40' W 074°03'1 1.2
2016-Dec-02 17:34N 40°41' W 074°04'0 0.5
2016-Dec-02 16:33N 40°40' W 074°04'2 1.7
2016-Dec-02 15:33N 40°39' W 074°05'2 1.7
2016-Dec-02 14:33N 40°41' W 074°05'2 1.8
2016-Dec-02 13:34N 40°39' W 074°05'4 3.8
2016-Dec-02 12:33N 40°42' W 074°09'2 1.6
2016-Dec-02 11:33N 40°40' W 074°08'3 3.1
2016-Dec-02 10:34N 40°40' W 074°04'1 1.0
2016-Dec-02 09:33N 40°41' W 074°04'0 0.0
2016-Dec-02 08:34N 40°41' W 074°04'0 0.0
2016-Dec-02 07:33N 40°41' W 074°04'0 0.0
2016-Dec-02 06:33N 40°41' W 074°04'0 0.0
2016-Dec-02 05:34N 40°41' W 074°04'0 0.2
2016-Dec-02 04:33N 40°41' W 074°05'0 0.0
2016-Dec-02 03:33N 40°41' W 074°05'0 0.0
2016-Dec-02 02:33N 40°41' W 074°05'0 0.0
2016-Dec-02 01:33N 40°41' W 074°05'0 0.0
2016-Dec-02 00:33N 40°41' W 074°05'0 0.0
2016-Dec-01 23:33N 40°41' W 074°05'0 0.0
2016-Dec-01 22:33N 40°41' W 074°05'0 0.0
2016-Dec-01 21:33N 40°41' W 074°05'0 0.0
2016-Dec-01 20:33N 40°41' W 074°05'0 0.0
2016-Dec-01 19:33N 40°41' W 074°05'0 0.0
2016-Dec-01 18:33N 40°41' W 074°05'0 0.0
2016-Dec-01 17:33N 40°41' W 074°05'0 0.0
2016-Dec-01 16:34N 40°41' W 074°05'0 0.0
2016-Dec-01 15:33N 40°41' W 074°05'0 0.0
2016-Dec-01 14:33N 40°41' W 074°05'4 4.0
2016-Dec-01 13:33N 40°42' W 073°60'1 1.1
2016-Dec-01 12:33N 40°42' W 073°58'0 0.1
2016-Dec-01 11:33N 40°42' W 073°59'4 3.7
2016-Dec-01 10:34N 40°40' W 074°03'1 1.3
2016-Dec-01 09:33N 40°41' W 074°04'0 0.0
2016-Dec-01 08:33N 40°41' W 074°04'0 0.0
2016-Dec-01 07:33N 40°41' W 074°04'0 0.0
2016-Dec-01 06:33N 40°41' W 074°04'0 0.0
2016-Dec-01 05:33N 40°41' W 074°04'0 0.0
2016-Dec-01 04:33N 40°41' W 074°04'0 0.0
2016-Dec-01 03:33N 40°41' W 074°04'0 0.1
2016-Dec-01 02:33N 40°40' W 074°04'0 0.1
2016-Dec-01 01:34N 40°41' W 074°04'0 0.2
2016-Dec-01 00:33N 40°41' W 074°05'2 1.7
2016-Nov-30 23:33N 40°39' W 074°05'1 0.9
2016-Nov-30 22:23N 40°39' W 074°07'0 0.0
2016-Nov-30 21:33N 40°39' W 074°07'0 0.0
2016-Nov-30 20:34N 40°39' W 074°07'0 0.0
2016-Nov-30 19:34N 40°39' W 074°07'4 4.3
2016-Nov-30 18:31N 40°38' W 074°12'  
Track history (hours):
 
Tides and Currents Weather Stations Pressure Air Temp Water Temp Dewpoint Dewpoint Depression Visibility Wind Speed Wind Dir Waves Ship Positions

Tug "trevor"

Owner: WEEKS MARINE, INC., CRANFORD, NJ. More information available from US FCC via Universal Licensing System and Coast Guard Vessel Documentation Center.

Last reported at 2016-Dec-10 04:34 UTC. Time now 2016-Dec-10 05:04 UTC.
Position N 40°02' W 074°60'.

Length 21 m; draft 3 m.

Type: Towing. MMSI: 366643140.

Date/timePositionNaut miles runAvg speedWind from/ knotsBaromVisibWave heightAir tempDewpointWater temp
2016-Dec-10 04:34N 40°02' W 074°60'0 0.0
2016-Dec-10 03:34N 40°02' W 074°60'0 0.0
2016-Dec-10 02:33N 40°02' W 074°60'0 0.0
2016-Dec-10 01:33N 40°02' W 074°60'0 0.0
2016-Dec-10 00:33N 40°02' W 074°60'0 0.0
2016-Dec-09 23:34N 40°02' W 074°60'0 0.0
2016-Dec-09 22:34N 40°02' W 074°60'0 0.1
2016-Dec-09 21:34N 40°02' W 074°59'0 0.1
2016-Dec-09 20:33N 40°02' W 074°60'0 0.0
2016-Dec-09 19:34N 40°02' W 074°60'0 0.0
2016-Dec-09 18:34N 40°02' W 074°60'0 0.0
2016-Dec-09 17:34N 40°02' W 074°60'0 0.0
2016-Dec-09 16:15N 40°02' W 074°60'0 0.3
2016-Dec-09 15:33N 40°02' W 074°60'0 0.2
2016-Dec-09 14:32N 40°02' W 074°60'0 0.0
2016-Dec-09 13:33N 40°02' W 074°60'0 0.0
2016-Dec-09 12:33N 40°02' W 074°60'0 0.1
2016-Dec-09 11:33N 40°02' W 074°60'0 0.0
2016-Dec-09 10:34N 40°02' W 074°60'0 0.0
2016-Dec-09 09:34N 40°02' W 074°60'0 0.0
2016-Dec-09 08:34N 40°02' W 074°60'0 0.0
2016-Dec-09 07:33N 40°02' W 074°60'0 0.0
2016-Dec-09 06:34N 40°02' W 074°60'0 0.3
2016-Dec-09 05:34N 40°02' W 074°60'0 0.0
2016-Dec-09 04:34N 40°02' W 074°60'0 0.0
2016-Dec-09 03:34N 40°02' W 074°60'0 0.0
2016-Dec-09 02:33N 40°02' W 074°60'0 0.4
2016-Dec-09 01:34N 40°02' W 074°60'0 0.0
2016-Dec-09 00:34N 40°02' W 074°60'0 0.0
2016-Dec-08 23:33N 40°02' W 074°60'0 0.0
2016-Dec-08 22:34N 40°02' W 074°60'0 0.0
2016-Dec-08 21:33N 40°02' W 074°60'0 0.0
2016-Dec-08 20:34N 40°02' W 074°60'0 0.0
2016-Dec-08 19:34N 40°02' W 074°60'0 0.0
2016-Dec-08 18:34N 40°02' W 074°60'0 0.0
2016-Dec-08 17:34N 40°02' W 074°60'0 0.0
2016-Dec-08 16:34N 40°02' W 074°60'0 0.0
2016-Dec-08 15:34N 40°02' W 074°60'0 0.0
2016-Dec-08 14:34N 40°02' W 074°60'0 0.0
2016-Dec-08 13:34N 40°02' W 074°60'0 0.0
2016-Dec-08 12:34N 40°02' W 074°60'0 0.0
2016-Dec-08 11:34N 40°02' W 074°60'0 0.1
2016-Dec-08 10:34N 40°02' W 074°60'0 0.1
2016-Dec-08 09:34N 40°02' W 074°60'0 0.0
2016-Dec-08 08:34N 40°02' W 074°60'0 0.0
2016-Dec-08 07:34N 40°02' W 074°60'0 0.0
2016-Dec-08 06:33N 40°02' W 074°60'0 0.0
2016-Dec-08 05:34N 40°02' W 074°60'0 0.0
2016-Dec-08 04:34N 40°02' W 074°60'0 0.0
2016-Dec-08 03:34N 40°02' W 074°60'0 0.0
2016-Dec-08 02:34N 40°02' W 074°60'0 0.0
2016-Dec-08 01:34N 40°02' W 074°60'0 0.0
2016-Dec-08 00:33N 40°02' W 074°60'0 0.0
2016-Dec-07 23:34N 40°02' W 074°60'4 3.9
2016-Dec-07 22:34N 39°59' W 075°04'4 3.8
2016-Dec-07 21:34N 39°57' W 075°08'1 0.6
2016-Dec-07 20:34N 39°57' W 075°08'1 0.6
2016-Dec-07 19:34N 39°57' W 075°08'0 0.0
2016-Dec-07 18:34N 39°57' W 075°08'0 0.0
2016-Dec-07 17:34N 39°57' W 075°08'0 0.0
2016-Dec-07 16:34N 39°57' W 075°08'0 0.0
2016-Dec-07 15:34N 39°57' W 075°08'0 0.0
2016-Dec-07 14:34N 39°57' W 075°08'0 0.0
2016-Dec-07 13:34N 39°57' W 075°08'0 0.0
2016-Dec-07 12:34N 39°57' W 075°08'0 0.0
2016-Dec-07 11:34N 39°57' W 075°08'0 0.0
2016-Dec-07 10:34N 39°57' W 075°08'0 0.0
2016-Dec-07 09:34N 39°57' W 075°08'0 0.0
2016-Dec-07 08:34N 39°57' W 075°08'0 0.0
2016-Dec-07 07:34N 39°57' W 075°08'0 0.0
2016-Dec-07 06:34N 39°57' W 075°08'0 0.0
2016-Dec-07 05:34N 39°57' W 075°08'0 0.0
2016-Dec-07 04:34N 39°57' W 075°08'0 0.0
2016-Dec-07 03:34N 39°57' W 075°08'0 0.0
2016-Dec-07 02:34N 39°57' W 075°08'0 0.0
2016-Dec-07 01:34N 39°57' W 075°08'6 5.5
2016-Dec-07 00:34N 39°53' W 075°12'9 8.7
2016-Dec-06 23:34N 39°50' W 075°22'9 9.4
2016-Dec-06 22:34N 39°43' W 075°30'9 9.1
2016-Dec-06 21:34N 39°34' W 075°33'10 9.7
2016-Dec-06 20:34N 39°24' W 075°30'2211.0
2016-Dec-06 18:33N 39°07' W 075°13'55 6.8
2016-Dec-06 10:33N 39°29' W 074°08'9 9.6
2016-Dec-06 09:33N 39°38' W 074°03'49 9.6
2016-Dec-06 04:30N 40°26' W 073°57'4 1.8
2016-Dec-06 02:12N 40°28' W 074°01'5 1.8
2016-Dec-05 23:20N 40°29' W 073°55'0 0.5
2016-Dec-05 22:33N 40°29' W 073°54'0 0.0
2016-Dec-05 21:34N 40°29' W 073°54'3 1.0
2016-Dec-05 18:14N 40°29' W 073°59'1 0.4
2016-Dec-05 16:19N 40°29' W 073°60'0 0.1
2016-Dec-05 12:34N 40°29' W 073°59'0 0.4
2016-Dec-05 11:31N 40°29' W 073°60'0 0.0
2016-Dec-05 10:32N 40°29' W 073°60'0 0.0
2016-Dec-05 09:32N 40°29' W 073°60'0 0.0
2016-Dec-05 05:30N 40°29' W 073°60'0 0.0
2016-Dec-05 04:33N 40°29' W 073°60'0 0.0
2016-Dec-05 03:32N 40°29' W 073°60'0 0.0
2016-Dec-05 02:33N 40°29' W 073°60'0 0.0
2016-Dec-05 01:32N 40°29' W 073°60'0 0.0
2016-Dec-05 00:33N 40°29' W 073°60'0 0.0
2016-Dec-04 23:33N 40°29' W 073°60'0 0.0
2016-Dec-04 22:33N 40°29' W 073°60'5 0.6
2016-Dec-04 15:23N 40°29' W 073°54'3 0.6
2016-Dec-04 10:12N 40°30' W 073°58'4 6.1
2016-Dec-04 09:33N 40°33' W 074°02'6 6.3
2016-Dec-04 08:33N 40°39' W 074°03'2 1.9
2016-Dec-04 07:33N 40°41' W 074°04'0 0.0
2016-Dec-04 06:33N 40°41' W 074°04'0 0.0
2016-Dec-04 05:33N 40°41' W 074°04'0 0.0
2016-Dec-04 04:34N 40°41' W 074°04'0 0.0
2016-Dec-04 03:33N 40°41' W 074°04'0 0.0
2016-Dec-04 02:33N 40°41' W 074°04'0 0.0
2016-Dec-04 01:33N 40°41' W 074°04'0 0.0
2016-Dec-04 00:33N 40°41' W 074°04'0 0.0
2016-Dec-03 23:33N 40°41' W 074°04'0 0.0
2016-Dec-03 22:33N 40°41' W 074°04'0 0.0
2016-Dec-03 21:33N 40°41' W 074°04'0 0.0
2016-Dec-03 20:33N 40°41' W 074°04'0 0.0
2016-Dec-03 19:33N 40°41' W 074°04'0 0.0
2016-Dec-03 18:33N 40°41' W 074°04'0 0.0
2016-Dec-03 17:33N 40°41' W 074°04'0 0.0
2016-Dec-03 16:33N 40°41' W 074°04'0 0.0
2016-Dec-03 15:34N 40°41' W 074°04'0 0.0
2016-Dec-03 14:33N 40°41' W 074°04'0 0.0
2016-Dec-03 13:33N 40°41' W 074°04'0 0.0
2016-Dec-03 12:33N 40°41' W 074°04'0 0.0
2016-Dec-03 11:34N 40°41' W 074°04'0 0.0
2016-Dec-03 10:33N 40°41' W 074°04'0 0.0
2016-Dec-03 09:33N 40°41' W 074°04'0 0.0
2016-Dec-03 08:33N 40°41' W 074°04'0 0.0
2016-Dec-03 07:33N 40°41' W 074°04'0 0.0
2016-Dec-03 06:33N 40°41' W 074°04'0 0.2
2016-Dec-03 05:33N 40°41' W 074°05'0 0.0
2016-Dec-03 04:33N 40°41' W 074°05'0 0.0
2016-Dec-03 03:33N 40°41' W 074°05'0 0.0
2016-Dec-03 02:33N 40°41' W 074°05'0 0.0
2016-Dec-03 01:33N 40°41' W 074°05'0 0.0
2016-Dec-03 00:34N 40°41' W 074°05'0 0.0
2016-Dec-02 23:33N 40°41' W 074°05'0 0.0
2016-Dec-02 22:33N 40°41' W 074°05'0 0.0
2016-Dec-02 21:33N 40°41' W 074°05'0 0.0
2016-Dec-02 20:34N 40°41' W 074°05'0 0.0
2016-Dec-02 19:33N 40°41' W 074°05'1 1.4
2016-Dec-02 18:34N 40°40' W 074°03'1 1.2
2016-Dec-02 17:34N 40°41' W 074°04'0 0.5
2016-Dec-02 16:33N 40°40' W 074°04'2 1.7
2016-Dec-02 15:33N 40°39' W 074°05'2 1.7
2016-Dec-02 14:33N 40°41' W 074°05'2 1.8
2016-Dec-02 13:34N 40°39' W 074°05'4 3.8
2016-Dec-02 12:33N 40°42' W 074°09'2 1.6
2016-Dec-02 11:33N 40°40' W 074°08'3 3.1
2016-Dec-02 10:34N 40°40' W 074°04'1 1.0
2016-Dec-02 09:33N 40°41' W 074°04'0 0.0
2016-Dec-02 08:34N 40°41' W 074°04'0 0.0
2016-Dec-02 07:33N 40°41' W 074°04'0 0.0
2016-Dec-02 06:33N 40°41' W 074°04'0 0.0
2016-Dec-02 05:34N 40°41' W 074°04'0 0.2
2016-Dec-02 04:33N 40°41' W 074°05'0 0.0
2016-Dec-02 03:33N 40°41' W 074°05'0 0.0
2016-Dec-02 02:33N 40°41' W 074°05'0 0.0
2016-Dec-02 01:33N 40°41' W 074°05'0 0.0
2016-Dec-02 00:33N 40°41' W 074°05'0 0.0
2016-Dec-01 23:33N 40°41' W 074°05'0 0.0
2016-Dec-01 22:33N 40°41' W 074°05'0 0.0
2016-Dec-01 21:33N 40°41' W 074°05'0 0.0
2016-Dec-01 20:33N 40°41' W 074°05'0 0.0
2016-Dec-01 19:33N 40°41' W 074°05'0 0.0
2016-Dec-01 18:33N 40°41' W 074°05'0 0.0
2016-Dec-01 17:33N 40°41' W 074°05'0 0.0
2016-Dec-01 16:34N 40°41' W 074°05'0 0.0
2016-Dec-01 15:33N 40°41' W 074°05'0 0.0
2016-Dec-01 14:33N 40°41' W 074°05'4 4.0
2016-Dec-01 13:33N 40°42' W 073°60'1 1.1
2016-Dec-01 12:33N 40°42' W 073°58'0 0.1
2016-Dec-01 11:33N 40°42' W 073°59'4 3.7
2016-Dec-01 10:34N 40°40' W 074°03'1 1.3
2016-Dec-01 09:33N 40°41' W 074°04'0 0.0
2016-Dec-01 08:33N 40°41' W 074°04'0 0.0
2016-Dec-01 07:33N 40°41' W 074°04'0 0.0
2016-Dec-01 06:33N 40°41' W 074°04'0 0.0
2016-Dec-01 05:33N 40°41' W 074°04'0 0.0
2016-Dec-01 04:33N 40°41' W 074°04'0 0.0
2016-Dec-01 03:33N 40°41' W 074°04'0 0.1
2016-Dec-01 02:33N 40°40' W 074°04'0 0.1
2016-Dec-01 01:34N 40°41' W 074°04'0 0.2
2016-Dec-01 00:33N 40°41' W 074°05'2 1.7
2016-Nov-30 23:33N 40°39' W 074°05'1 0.9
2016-Nov-30 22:23N 40°39' W 074°07'0 0.0
2016-Nov-30 21:33N 40°39' W 074°07'0 0.0
2016-Nov-30 20:34N 40°39' W 074°07'0 0.0
2016-Nov-30 19:34N 40°39' W 074°07'4 4.3
2016-Nov-30 18:31N 40°38' W 074°12'  

Dump ship's entire track history